< < Back
Terminal Aerodrome Forecast


Current Version              Previous Versions:   1  2  3  4  5  6  7  8  9  

Terminal Aerodrome Forecast

217
FTUS42 KJAX 011723
TAFJAX
TAF
KJAX 011723Z 0118/0218 21010KT P6SM VCTS OVC035CB
      TEMPO 0118/0122 2SM TSRA BKN015 OVC025CB
     FM012300 21006KT P6SM BKN035 BKN250
     FM021500 23010KT P6SM VCTS BKN030CB=

Latest METAR

172
SAUS80 KWBC 011800 RRJ
MTRJAX
METAR KJAX 011756Z 19014G18KT 10SM TS SCT024CB BKN055 BKN120 BKN250
28/24 A2991 RMK AO2 RAE06B35E51 TSB52 SLP129 OCNL LTGIC OHD
TS OHD MOV NE P0000 60014 T02780244 10294 20250 58005


USA.gov is the U.S. government's official web portal to all federal, state and local government web resources and services.